createdAt,value
2022-08-25T00:00:03.691Z,28.7
2022-08-25T00:01:03.684Z,28.7
2022-08-25T00:02:03.669Z,28.7
2022-08-25T00:03:03.743Z,28.7
2022-08-25T00:04:03.694Z,28.7
2022-08-25T00:05:03.727Z,28.7
2022-08-25T00:06:03.692Z,28.7
2022-08-25T00:07:03.674Z,28.6
2022-08-25T00:08:03.848Z,28.6
2022-08-25T00:09:03.674Z,28.6
2022-08-25T00:10:03.671Z,28.6
2022-08-25T00:11:03.800Z,28.6
2022-08-25T00:12:03.738Z,28.6
2022-08-25T00:13:03.697Z,28.6
2022-08-25T00:14:03.673Z,28.6
2022-08-25T00:15:03.711Z,28.6
2022-08-25T00:16:03.787Z,28.6
2022-08-25T00:17:03.695Z,28.6
2022-08-25T00:18:03.844Z,28.6
2022-08-25T00:19:03.961Z,28.5
2022-08-25T00:20:03.682Z,28.5
2022-08-25T00:21:03.681Z,28.5
2022-08-25T00:22:03.673Z,28.5
2022-08-25T00:23:03.703Z,28.5
2022-08-25T00:24:21.526Z,28.3
2022-08-25T00:25:04.467Z,28.5
2022-08-25T00:26:11.191Z,28.4
2022-08-25T00:27:03.721Z,28.4
2022-08-25T00:28:11.288Z,28.4
2022-08-25T00:29:03.826Z,28.5
2022-08-25T00:30:10.541Z,28.4
2022-08-25T00:31:04.314Z,28.5
2022-08-25T00:32:11.687Z,28.4
2022-08-25T00:33:04.427Z,28.5
2022-08-25T00:34:04.418Z,28.5
2022-08-25T00:35:04.445Z,28.5
2022-08-25T00:36:04.416Z,28.5
2022-08-25T00:37:04.421Z,28.5
2022-08-25T00:38:04.708Z,28.5
2022-08-25T00:39:04.466Z,28.5
2022-08-25T00:40:04.519Z,28.5
2022-08-25T00:41:04.446Z,28.4
2022-08-25T00:42:04.427Z,28.4
2022-08-25T00:43:04.416Z,28.4
2022-08-25T00:44:04.458Z,28.4
2022-08-25T00:45:04.461Z,28.4
2022-08-25T00:46:04.515Z,28.4
2022-08-25T00:47:04.473Z,28.4
2022-08-25T00:48:04.587Z,28.4
2022-08-25T00:49:04.420Z,28.4
2022-08-25T00:50:04.430Z,28.4
2022-08-25T00:51:04.420Z,28.4
2022-08-25T00:52:04.426Z,28.4
2022-08-25T00:53:04.503Z,28.4
2022-08-25T00:54:04.513Z,28.4
2022-08-25T00:55:07.833Z,28.3
2022-08-25T00:56:04.437Z,28.2
2022-08-25T00:57:04.432Z,28.2
2022-08-25T00:58:04.553Z,28.1
2022-08-25T00:59:04.497Z,28.0
2022-08-25T01:00:04.496Z,27.9
2022-08-25T01:01:04.449Z,28.0
2022-08-25T01:02:04.422Z,27.9
2022-08-25T01:03:04.580Z,27.9
2022-08-25T01:04:04.441Z,27.8
2022-08-25T01:05:04.489Z,27.8
2022-08-25T01:06:04.445Z,27.8
2022-08-25T01:07:04.444Z,27.8
2022-08-25T01:08:06.718Z,27.6
2022-08-25T01:09:04.430Z,27.6
2022-08-25T01:10:04.461Z,27.6
2022-08-25T01:11:04.474Z,27.7
2022-08-25T01:12:04.434Z,27.7
2022-08-25T01:13:04.440Z,27.8
2022-08-25T01:14:04.438Z,27.8
2022-08-25T01:15:04.455Z,27.8
2022-08-25T01:16:04.478Z,27.9
2022-08-25T01:17:04.513Z,27.9
2022-08-25T01:18:11.139Z,27.8
2022-08-25T01:19:11.222Z,27.8
2022-08-25T01:20:13.826Z,27.8
2022-08-25T01:21:12.153Z,27.8
2022-08-25T01:22:10.932Z,27.8
2022-08-25T01:23:04.621Z,27.9
2022-08-25T01:24:11.326Z,27.8
2022-08-25T01:25:04.059Z,27.8
2022-08-25T01:26:06.735Z,27.9
2022-08-25T01:27:11.039Z,27.9
2022-08-25T01:28:04.709Z,27.9
2022-08-25T01:29:04.500Z,27.9
2022-08-25T01:30:04.461Z,27.9
2022-08-25T01:31:04.503Z,27.9
2022-08-25T01:32:04.470Z,27.9
2022-08-25T01:33:04.476Z,27.9
2022-08-25T01:34:04.473Z,27.9
2022-08-25T01:35:04.521Z,27.9
2022-08-25T01:36:04.472Z,27.9
2022-08-25T01:37:04.468Z,27.8
2022-08-25T01:38:04.583Z,27.8
2022-08-25T01:39:04.490Z,27.8
2022-08-25T01:40:04.509Z,27.8
2022-08-25T01:41:04.544Z,27.7
2022-08-25T01:42:04.470Z,27.6
2022-08-25T01:43:04.483Z,27.4
2022-08-25T01:44:04.470Z,27.3
2022-08-25T01:45:04.477Z,27.2
2022-08-25T01:46:04.509Z,27.2
2022-08-25T01:47:04.586Z,27.2
2022-08-25T01:48:04.616Z,27.1
2022-08-25T01:49:06.840Z,27.0
2022-08-25T01:50:04.482Z,26.9
2022-08-25T01:51:04.493Z,27.0
2022-08-25T01:52:04.494Z,27.0
2022-08-25T01:53:04.561Z,27.0
2022-08-25T01:54:04.558Z,26.9
2022-08-25T01:55:04.482Z,27.0
2022-08-25T01:56:04.482Z,27.1
2022-08-25T01:57:04.488Z,27.1
2022-08-25T01:58:04.789Z,27.1
2022-08-25T01:59:04.507Z,27.2
2022-08-25T02:00:04.524Z,27.2
2022-08-25T02:01:04.500Z,27.3
2022-08-25T02:02:04.749Z,27.3
2022-08-25T02:03:04.513Z,27.3
2022-08-25T02:04:05.010Z,27.4
2022-08-25T02:05:04.514Z,27.3
2022-08-25T02:06:04.474Z,27.2
2022-08-25T02:07:04.483Z,27.0
2022-08-25T02:08:05.148Z,26.9
2022-08-25T02:09:04.488Z,26.9
2022-08-25T02:10:04.478Z,26.8
2022-08-25T02:11:04.609Z,26.8
2022-08-25T02:12:04.520Z,26.8
2022-08-25T02:14:43.925Z,26.9
2022-08-25T02:14:47.877Z,26.2
2022-08-25T02:15:04.490Z,26.3
2022-08-25T02:16:04.488Z,26.3
2022-08-25T02:17:04.558Z,26.4
2022-08-25T02:18:04.712Z,26.6
2022-08-25T02:19:04.501Z,26.7
2022-08-25T02:20:04.501Z,26.8
2022-08-25T02:21:04.490Z,26.8
2022-08-25T02:22:04.482Z,26.7
2022-08-25T02:23:04.555Z,26.8
2022-08-25T02:24:04.488Z,26.9
2022-08-25T02:25:04.498Z,27.0
2022-08-25T02:26:04.481Z,27.1
2022-08-25T02:27:05.644Z,27.0
2022-08-25T02:28:04.762Z,26.9
2022-08-25T02:29:04.529Z,26.8
2022-08-25T02:30:04.518Z,26.8
2022-08-25T02:31:04.554Z,26.9
2022-08-25T02:32:04.510Z,26.9
2022-08-25T02:33:04.521Z,26.8
2022-08-25T02:34:04.633Z,26.9
2022-08-25T02:35:04.698Z,26.9
2022-08-25T02:36:04.509Z,27.0
2022-08-25T02:37:04.550Z,27.0
2022-08-25T02:38:04.626Z,26.9
2022-08-25T02:39:04.553Z,26.8
2022-08-25T02:40:04.575Z,26.7
2022-08-25T02:41:04.520Z,26.8
2022-08-25T02:42:04.516Z,26.8
2022-08-25T02:43:04.546Z,26.9
2022-08-25T02:44:04.502Z,26.9
2022-08-25T02:45:04.491Z,26.9
2022-08-25T02:46:04.531Z,26.9
2022-08-25T02:47:04.528Z,27.0
2022-08-25T02:48:04.634Z,27.1
2022-08-25T02:49:04.505Z,27.1
2022-08-25T02:50:04.498Z,27.1
2022-08-25T02:51:04.490Z,27.1
2022-08-25T02:52:04.496Z,27.2
2022-08-25T02:53:04.553Z,27.2
2022-08-25T02:54:04.507Z,27.2
2022-08-25T02:55:04.618Z,27.2
2022-08-25T02:56:04.510Z,27.2
2022-08-25T02:57:04.491Z,27.2
2022-08-25T02:58:04.738Z,27.2
2022-08-25T02:59:04.550Z,27.3
2022-08-25T03:00:04.507Z,27.2
2022-08-25T03:01:04.694Z,27.2
2022-08-25T03:02:05.557Z,27.2
2022-08-25T03:03:04.513Z,27.2
2022-08-25T03:04:04.500Z,27.2
2022-08-25T03:05:04.617Z,27.2
2022-08-25T03:06:04.562Z,27.1
2022-08-25T03:08:55.171Z,26.5
2022-08-25T03:09:04.627Z,26.5
2022-08-25T03:10:04.566Z,26.7
2022-08-25T03:11:03.893Z,26.7
2022-08-25T03:12:04.039Z,26.6
2022-08-25T03:13:03.904Z,26.5
2022-08-25T03:14:03.897Z,26.3
2022-08-25T03:15:03.942Z,26.3
2022-08-25T03:16:03.920Z,26.4
2022-08-25T03:17:03.988Z,26.5
2022-08-25T03:18:04.011Z,26.6
2022-08-25T03:19:03.899Z,26.6
2022-08-25T03:20:04.965Z,26.6
2022-08-25T03:21:03.905Z,26.6
2022-08-25T03:22:03.992Z,26.6
2022-08-25T03:23:03.943Z,26.6
2022-08-25T03:24:03.913Z,26.7
2022-08-25T03:25:04.538Z,26.6
2022-08-25T03:26:03.898Z,26.5
2022-08-25T03:27:03.913Z,26.6
2022-08-25T03:28:04.160Z,26.7
2022-08-25T03:29:04.946Z,26.7
2022-08-25T03:30:03.903Z,26.6
2022-08-25T03:31:03.895Z,26.5
2022-08-25T03:32:04.899Z,26.5
2022-08-25T03:33:03.927Z,26.4
2022-08-25T03:34:03.907Z,26.3
2022-08-25T03:35:03.928Z,26.1
2022-08-25T03:36:03.973Z,26.0
2022-08-25T03:37:03.904Z,26.0
2022-08-25T03:38:04.081Z,26.0
2022-08-25T03:39:03.914Z,26.0
2022-08-25T03:40:04.019Z,26.1
2022-08-25T03:41:03.936Z,26.1
2022-08-25T03:42:03.937Z,26.2
2022-08-25T03:43:03.906Z,26.2
2022-08-25T03:44:03.944Z,26.3
2022-08-25T03:45:03.900Z,26.4
2022-08-25T03:46:03.960Z,26.4
2022-08-25T03:47:03.946Z,26.4
2022-08-25T03:48:04.046Z,26.4
2022-08-25T03:49:03.911Z,26.5
2022-08-25T03:50:03.916Z,26.5
2022-08-25T03:51:03.932Z,26.5
2022-08-25T03:52:03.923Z,26.6
2022-08-25T03:53:03.950Z,26.6
2022-08-25T03:54:03.957Z,26.5
2022-08-25T03:55:04.040Z,26.5
2022-08-25T03:56:30.345Z,26.3
2022-08-25T03:57:04.282Z,26.4
2022-08-25T03:58:04.178Z,26.4
2022-08-25T03:59:04.134Z,26.4
2022-08-25T04:00:04.079Z,26.4
2022-08-25T04:01:04.120Z,26.5
2022-08-25T04:02:04.187Z,26.5
2022-08-25T04:03:04.321Z,26.4
2022-08-25T04:04:04.076Z,26.4
2022-08-25T04:05:04.115Z,26.4
2022-08-25T04:06:04.074Z,26.4
2022-08-25T04:07:04.082Z,26.4
2022-08-25T04:08:04.233Z,26.4
2022-08-25T04:09:04.081Z,26.3
2022-08-25T04:10:04.087Z,26.4
2022-08-25T04:11:04.118Z,26.4
2022-08-25T04:12:04.264Z,26.3
2022-08-25T04:13:04.166Z,26.3
2022-08-25T04:14:04.084Z,26.3
2022-08-25T04:15:04.099Z,26.1
2022-08-25T04:16:04.103Z,26.1
2022-08-25T04:17:04.170Z,26.1
2022-08-25T04:18:04.228Z,26.2
2022-08-25T04:19:04.101Z,26.2
2022-08-25T04:20:04.098Z,26.3
2022-08-25T04:21:04.094Z,26.3
2022-08-25T04:22:04.089Z,26.4
2022-08-25T04:23:04.260Z,26.4
2022-08-25T04:24:04.088Z,26.4
2022-08-25T04:25:04.112Z,26.4
2022-08-25T04:26:04.078Z,26.4
2022-08-25T04:27:04.087Z,26.4
2022-08-25T04:28:04.120Z,26.4
2022-08-25T04:29:04.120Z,26.5
2022-08-25T04:30:04.095Z,26.5
2022-08-25T04:31:04.099Z,26.5
2022-08-25T04:32:04.110Z,26.6
2022-08-25T04:33:04.260Z,26.6
2022-08-25T04:34:04.079Z,26.6
2022-08-25T04:35:04.120Z,26.6
2022-08-25T04:36:05.876Z,26.6
2022-08-25T04:37:04.101Z,26.6
2022-08-25T04:38:04.260Z,26.6
2022-08-25T04:39:04.151Z,26.6
2022-08-25T04:40:04.161Z,26.6
2022-08-25T04:41:04.150Z,26.6
2022-08-25T04:42:04.135Z,26.7
2022-08-25T04:43:04.109Z,26.6
2022-08-25T04:44:04.120Z,26.7
2022-08-25T04:46:35.160Z,26.4
2022-08-25T04:47:04.118Z,26.5
2022-08-25T04:48:03.800Z,26.5
2022-08-25T04:49:03.804Z,26.5
2022-08-25T04:50:03.764Z,26.6
2022-08-25T04:51:03.747Z,26.6
2022-08-25T04:52:03.788Z,26.6
2022-08-25T04:53:03.755Z,26.5
2022-08-25T04:54:03.778Z,26.5
2022-08-25T04:55:03.801Z,26.5
2022-08-25T04:56:04.100Z,26.5
2022-08-25T04:57:03.761Z,26.5
2022-08-25T04:58:03.833Z,26.4
2022-08-25T04:59:03.769Z,26.4
2022-08-25T05:00:03.750Z,26.3
2022-08-25T05:01:03.854Z,26.3
2022-08-25T05:02:03.753Z,26.3
2022-08-25T05:03:03.732Z,26.2
2022-08-25T05:04:03.776Z,26.3
2022-08-25T05:05:03.780Z,26.3
2022-08-25T05:06:03.761Z,26.3
2022-08-25T05:07:03.744Z,26.3
2022-08-25T05:08:04.932Z,26.2
2022-08-25T05:09:03.743Z,26.2
2022-08-25T05:10:04.753Z,26.2
2022-08-25T05:11:03.761Z,26.2
2022-08-25T05:12:03.769Z,26.1
2022-08-25T05:13:03.753Z,26.0
2022-08-25T05:14:03.745Z,26.0
2022-08-25T05:15:03.760Z,26.0
2022-08-25T05:16:03.823Z,26.0
2022-08-25T05:17:03.775Z,26.1
2022-08-25T05:18:03.831Z,26.1
2022-08-25T05:19:03.739Z,26.1
2022-08-25T05:20:03.745Z,26.1
2022-08-25T05:21:03.816Z,26.1
2022-08-25T05:22:04.750Z,26.1
2022-08-25T05:23:03.773Z,26.1
2022-08-25T05:24:03.766Z,26.1
2022-08-25T05:25:03.740Z,26.1
2022-08-25T05:26:03.762Z,26.1
2022-08-25T05:27:03.748Z,26.1
2022-08-25T05:28:03.849Z,26.0
2022-08-25T05:29:03.772Z,26.0
2022-08-25T05:30:03.757Z,26.0
2022-08-25T05:31:03.890Z,25.9
2022-08-25T05:32:03.790Z,25.9
2022-08-25T05:33:03.756Z,25.9
2022-08-25T05:34:03.771Z,25.8
2022-08-25T05:35:03.789Z,25.8
2022-08-25T05:36:03.768Z,25.8
2022-08-25T05:37:03.760Z,25.8
2022-08-25T05:38:03.794Z,25.8
2022-08-25T05:39:03.755Z,25.8
2022-08-25T05:41:37.741Z,25.5
2022-08-25T05:42:06.129Z,25.7
2022-08-25T05:43:04.332Z,25.8
2022-08-25T05:44:04.309Z,25.7
2022-08-25T05:45:04.326Z,25.8
2022-08-25T05:46:04.453Z,25.8
2022-08-25T05:47:04.346Z,25.7
2022-08-25T05:48:04.448Z,25.7
2022-08-25T05:49:04.328Z,25.7
2022-08-25T05:50:04.417Z,25.7
2022-08-25T05:51:04.362Z,25.6
2022-08-25T05:52:04.364Z,25.5
2022-08-25T05:53:04.354Z,25.5
2022-08-25T05:54:04.315Z,25.5
2022-08-25T05:55:04.326Z,25.5
2022-08-25T05:56:04.334Z,25.5
2022-08-25T05:57:04.354Z,25.6
2022-08-25T05:58:04.382Z,25.6
2022-08-25T05:59:09.107Z,25.6
2022-08-25T06:00:04.453Z,25.5
2022-08-25T06:01:04.408Z,25.5
2022-08-25T06:02:04.323Z,25.6
2022-08-25T06:03:04.328Z,25.6
2022-08-25T06:04:05.875Z,25.6
2022-08-25T06:05:04.390Z,25.6
2022-08-25T06:06:04.330Z,25.6
2022-08-25T06:07:04.333Z,25.6
2022-08-25T06:08:04.577Z,25.4
2022-08-25T06:09:04.326Z,25.4
2022-08-25T06:10:04.333Z,25.4
2022-08-25T06:11:04.377Z,25.5
2022-08-25T06:12:04.336Z,25.5
2022-08-25T06:13:04.336Z,25.6
2022-08-25T06:14:04.537Z,25.6
2022-08-25T06:15:04.366Z,25.7
2022-08-25T06:16:04.408Z,25.7
2022-08-25T06:17:04.366Z,25.7
2022-08-25T06:18:04.365Z,25.7
2022-08-25T06:19:04.338Z,25.6
2022-08-25T06:20:04.399Z,25.6
2022-08-25T06:21:04.349Z,25.6
2022-08-25T06:22:04.330Z,25.6
2022-08-25T06:23:04.366Z,25.6
2022-08-25T06:24:05.240Z,25.6
2022-08-25T06:25:05.460Z,25.6
2022-08-25T06:26:04.372Z,25.5
2022-08-25T06:27:04.351Z,25.5
2022-08-25T06:28:04.557Z,25.4
2022-08-25T06:29:04.345Z,25.5
2022-08-25T06:30:07.983Z,25.5
2022-08-25T06:31:04.397Z,25.5
2022-08-25T06:32:04.370Z,25.6
2022-08-25T06:33:04.339Z,25.6
2022-08-25T06:34:04.332Z,25.6
2022-08-25T06:35:04.352Z,25.6
2022-08-25T06:36:04.342Z,25.5
2022-08-25T06:37:04.338Z,25.4
2022-08-25T06:38:04.510Z,25.4
2022-08-25T06:39:04.375Z,25.5
2022-08-25T06:40:04.399Z,25.5
2022-08-25T06:41:04.380Z,25.6
2022-08-25T06:42:04.348Z,25.6
2022-08-25T06:43:04.351Z,25.6
2022-08-25T06:44:04.992Z,25.6
2022-08-25T06:45:04.350Z,25.6
2022-08-25T06:46:04.341Z,25.7
2022-08-25T06:47:04.450Z,25.7
2022-08-25T06:48:04.456Z,25.8
2022-08-25T06:49:04.339Z,25.8
2022-08-25T06:50:04.372Z,25.8
2022-08-25T06:51:04.342Z,25.9
2022-08-25T06:52:04.339Z,25.9
2022-08-25T06:53:04.375Z,26.0
2022-08-25T06:54:05.219Z,26.0
2022-08-25T06:55:04.358Z,26.0
2022-08-25T06:56:06.667Z,26.0
2022-08-25T06:57:04.346Z,26.0
2022-08-25T06:58:04.863Z,26.0
2022-08-25T06:59:04.370Z,26.0
2022-08-25T07:00:04.413Z,26.1
2022-08-25T07:01:04.413Z,26.1
2022-08-25T07:02:04.376Z,26.1
2022-08-25T07:03:04.343Z,26.1
2022-08-25T07:04:07.585Z,26.1
2022-08-25T07:05:04.648Z,26.2
2022-08-25T07:06:04.362Z,26.1
2022-08-25T07:07:04.347Z,26.1
2022-08-25T07:08:04.588Z,26.1
2022-08-25T07:09:04.388Z,26.2
2022-08-25T07:10:04.387Z,26.2
2022-08-25T07:11:04.345Z,26.2
2022-08-25T07:12:04.348Z,26.1
2022-08-25T07:13:04.372Z,26.1
2022-08-25T07:14:04.354Z,26.1
2022-08-25T07:15:19.364Z,26.1
2022-08-25T07:16:04.430Z,26.0
2022-08-25T07:17:10.500Z,25.8
2022-08-25T07:18:06.007Z,25.8
2022-08-25T07:19:04.379Z,25.9
2022-08-25T07:20:04.450Z,25.9
2022-08-25T07:21:04.394Z,26.0
2022-08-25T07:22:04.428Z,26.0
2022-08-25T07:23:04.511Z,26.0
2022-08-25T07:24:04.359Z,26.0
2022-08-25T07:25:04.383Z,26.0
2022-08-25T07:26:11.828Z,26.1
2022-08-25T07:27:04.431Z,26.1
2022-08-25T07:28:04.347Z,26.1
2022-08-25T07:29:04.395Z,26.1
2022-08-25T07:30:04.437Z,26.1
2022-08-25T07:31:04.381Z,26.1
2022-08-25T07:32:04.348Z,26.2
2022-08-25T07:33:06.961Z,26.2
2022-08-25T07:34:04.998Z,26.2
2022-08-25T07:35:04.386Z,26.2
2022-08-25T07:36:04.352Z,26.3
2022-08-25T07:37:04.376Z,26.3
2022-08-25T07:38:04.459Z,26.4
2022-08-25T07:39:04.467Z,26.4
2022-08-25T07:40:04.748Z,26.4
2022-08-25T07:41:04.404Z,26.3
2022-08-25T07:42:04.349Z,26.3
2022-08-25T07:43:04.431Z,26.4
2022-08-25T07:44:04.390Z,26.5
2022-08-25T07:45:04.361Z,26.5
2022-08-25T07:46:04.354Z,26.5
2022-08-25T07:47:04.394Z,26.5
2022-08-25T07:48:04.355Z,26.6
2022-08-25T07:49:04.361Z,26.6
2022-08-25T07:50:05.807Z,26.6
2022-08-25T07:51:05.603Z,26.6
2022-08-25T07:52:06.671Z,26.5
2022-08-25T07:53:04.411Z,26.6
2022-08-25T07:54:04.393Z,26.7
2022-08-25T07:55:04.378Z,26.7
2022-08-25T07:57:04.375Z,26.7
2022-08-25T07:58:04.424Z,26.7
2022-08-25T07:59:04.401Z,26.8
2022-08-25T08:00:04.431Z,26.8
2022-08-25T08:01:04.387Z,26.8
2022-08-25T08:02:04.410Z,26.8
2022-08-25T08:03:04.448Z,26.9
2022-08-25T08:04:04.407Z,26.9
2022-08-25T08:05:04.417Z,26.9
2022-08-25T08:06:04.490Z,26.9
2022-08-25T08:07:04.369Z,26.9
2022-08-25T08:08:04.421Z,26.9
2022-08-25T08:09:04.376Z,26.9
2022-08-25T08:10:48.150Z,26.9
2022-08-25T08:11:59.599Z,26.7
2022-08-25T08:12:04.293Z,26.7
2022-08-25T08:13:07.035Z,26.9
2022-08-25T08:14:04.293Z,27.0
2022-08-25T08:15:04.297Z,27.0
2022-08-25T08:16:04.353Z,27.0
2022-08-25T08:17:04.348Z,27.1
2022-08-25T08:18:04.311Z,27.1
2022-08-25T08:19:04.309Z,27.1
2022-08-25T08:20:04.302Z,27.1
2022-08-25T08:21:04.305Z,27.1
2022-08-25T08:22:04.327Z,27.2
2022-08-25T08:23:04.576Z,27.2
2022-08-25T08:24:10.744Z,27.2
2022-08-25T08:25:04.404Z,27.2
2022-08-25T08:26:04.296Z,27.2
2022-08-25T08:27:04.315Z,27.2
2022-08-25T08:28:04.338Z,27.3
2022-08-25T08:29:04.346Z,27.3
2022-08-25T08:30:04.301Z,27.3
2022-08-25T08:31:04.340Z,27.3
2022-08-25T08:32:04.318Z,27.3
2022-08-25T08:33:09.981Z,27.3
2022-08-25T08:34:04.302Z,27.4
2022-08-25T08:35:04.342Z,27.4
2022-08-25T08:36:04.951Z,27.4
2022-08-25T08:37:04.338Z,27.4
2022-08-25T08:38:06.920Z,27.5
2022-08-25T08:39:04.313Z,27.5
2022-08-25T08:40:04.417Z,27.5
2022-08-25T08:41:04.348Z,27.6
2022-08-25T08:42:11.390Z,27.6
2022-08-25T08:43:04.393Z,27.5
2022-08-25T08:45:04.348Z,27.6
2022-08-25T08:46:04.349Z,27.6
2022-08-25T08:47:05.214Z,27.6
2022-08-25T08:48:04.374Z,27.6
2022-08-25T08:49:04.559Z,27.6
2022-08-25T08:50:04.304Z,27.6
2022-08-25T08:51:04.314Z,27.7
2022-08-25T08:52:04.346Z,27.7
2022-08-25T08:53:04.982Z,27.7
2022-08-25T08:54:04.312Z,27.7
2022-08-25T08:55:05.631Z,27.7
2022-08-25T08:56:04.510Z,27.7
2022-08-25T08:57:04.340Z,27.8
2022-08-25T08:58:04.445Z,27.8
2022-08-25T08:59:30.919Z,27.6
2022-08-25T09:00:04.473Z,27.8
2022-08-25T09:01:04.500Z,27.8
2022-08-25T09:02:04.549Z,27.8
2022-08-25T09:03:04.735Z,27.8
2022-08-25T09:04:04.544Z,27.8
2022-08-25T09:05:04.552Z,27.8
2022-08-25T09:06:04.627Z,27.8
2022-08-25T09:07:04.501Z,27.8
2022-08-25T09:08:04.675Z,27.8
2022-08-25T09:09:06.756Z,27.9
2022-08-25T09:10:04.502Z,27.9
2022-08-25T09:11:04.700Z,27.9
2022-08-25T09:12:04.567Z,27.9
2022-08-25T09:13:11.305Z,27.9
2022-08-25T09:14:04.636Z,27.9
2022-08-25T09:15:13.037Z,27.9
2022-08-25T09:16:04.493Z,27.9
2022-08-25T09:17:05.334Z,27.9
2022-08-25T09:18:04.491Z,27.9
2022-08-25T09:19:04.491Z,27.9
2022-08-25T09:20:04.665Z,27.9
2022-08-25T09:21:04.645Z,28.0
2022-08-25T09:22:04.539Z,28.0
2022-08-25T09:23:04.493Z,27.9
2022-08-25T09:24:04.512Z,28.0
2022-08-25T09:25:08.291Z,28.0
2022-08-25T09:26:04.617Z,28.0
2022-08-25T09:27:04.507Z,28.0
2022-08-25T09:28:04.639Z,28.0
2022-08-25T09:29:06.210Z,28.0
2022-08-25T09:30:05.390Z,28.1
2022-08-25T09:31:04.568Z,28.1
2022-08-25T09:32:04.492Z,28.1
2022-08-25T09:33:05.423Z,28.1
2022-08-25T09:34:04.583Z,28.1
2022-08-25T09:35:04.495Z,28.1
2022-08-25T09:36:06.295Z,28.1
2022-08-25T09:37:04.512Z,28.1
2022-08-25T09:38:04.807Z,28.1
2022-08-25T09:39:05.637Z,28.1
2022-08-25T09:40:04.753Z,28.2
2022-08-25T09:41:04.534Z,28.2
2022-08-25T09:42:05.888Z,28.2
2022-08-25T09:43:04.571Z,28.2
2022-08-25T09:44:04.520Z,28.2
2022-08-25T09:45:04.525Z,28.3
2022-08-25T09:46:04.551Z,28.3
2022-08-25T09:47:04.507Z,28.3
2022-08-25T09:48:04.996Z,28.3
2022-08-25T09:49:04.885Z,28.3
2022-08-25T09:50:05.528Z,28.3
2022-08-25T09:51:04.539Z,28.4
2022-08-25T09:52:04.577Z,28.4
2022-08-25T09:53:15.267Z,28.4
2022-08-25T09:54:10.654Z,28.4
2022-08-25T09:55:04.500Z,28.4
2022-08-25T09:56:04.528Z,28.4
2022-08-25T09:57:04.551Z,28.4
2022-08-25T09:59:58.084Z,28.1
2022-08-25T10:00:04.459Z,28.1
2022-08-25T10:01:04.430Z,28.4
2022-08-25T10:02:04.550Z,28.4
2022-08-25T10:03:06.072Z,28.4
2022-08-25T10:04:04.556Z,28.5
2022-08-25T10:05:04.478Z,28.5
2022-08-25T10:06:04.415Z,28.5
2022-08-25T10:07:04.410Z,28.5
2022-08-25T10:08:04.393Z,28.5
2022-08-25T10:09:05.935Z,28.5
2022-08-25T10:10:04.401Z,28.5
2022-08-25T10:11:05.027Z,28.5
2022-08-25T10:12:04.384Z,28.5
2022-08-25T10:13:06.381Z,28.6
2022-08-25T10:14:04.399Z,28.5
2022-08-25T10:15:04.403Z,28.6
2022-08-25T10:16:04.450Z,28.6
2022-08-25T10:17:04.496Z,28.8
2022-08-25T10:18:04.416Z,28.9
2022-08-25T10:19:04.423Z,28.9
2022-08-25T10:20:04.447Z,29.0
2022-08-25T10:21:04.408Z,29.0
2022-08-25T10:22:04.397Z,29.0
2022-08-25T10:23:04.595Z,29.0
2022-08-25T10:24:04.465Z,29.0
2022-08-25T10:25:04.589Z,29.0
2022-08-25T10:26:04.685Z,29.1
2022-08-25T10:27:04.443Z,29.1
2022-08-25T10:28:04.798Z,29.0
2022-08-25T10:29:04.511Z,29.1
2022-08-25T10:30:04.402Z,29.2
2022-08-25T10:31:04.509Z,29.2
2022-08-25T10:32:05.157Z,29.2
2022-08-25T10:33:04.946Z,29.2
2022-08-25T10:34:04.541Z,29.2
2022-08-25T10:35:04.427Z,29.1
2022-08-25T10:36:04.404Z,29.1
2022-08-25T10:37:04.408Z,29.1
2022-08-25T10:38:04.407Z,29.1
2022-08-25T10:39:04.442Z,29.2
2022-08-25T10:40:04.467Z,29.1
2022-08-25T10:41:04.406Z,29.1
2022-08-25T10:42:04.402Z,29.1
2022-08-25T10:43:04.701Z,29.1
2022-08-25T10:44:04.498Z,29.1
2022-08-25T10:45:04.442Z,29.1
2022-08-25T10:46:04.484Z,29.1
2022-08-25T10:47:04.429Z,29.2
2022-08-25T10:48:04.481Z,29.2
2022-08-25T10:49:04.459Z,29.3
2022-08-25T10:50:04.485Z,29.3
2022-08-25T10:51:04.410Z,29.4
2022-08-25T10:52:04.429Z,29.4
2022-08-25T10:53:04.443Z,29.4
2022-08-25T10:54:04.415Z,29.4
2022-08-25T10:55:04.426Z,29.4
2022-08-25T10:56:04.442Z,29.4
2022-08-25T10:58:16.524Z,29.4
2022-08-25T10:58:20.496Z,29.2
2022-08-25T10:59:04.875Z,29.4
2022-08-25T11:00:04.434Z,29.4
2022-08-25T11:01:04.462Z,29.4
2022-08-25T11:02:04.515Z,29.4
2022-08-25T11:03:04.496Z,29.4
2022-08-25T11:04:04.439Z,29.4
2022-08-25T11:05:04.497Z,29.4
2022-08-25T11:06:04.433Z,29.4
2022-08-25T11:07:04.438Z,29.4
2022-08-25T11:08:04.419Z,29.4
2022-08-25T11:09:04.478Z,29.4
2022-08-25T11:10:04.478Z,29.5
2022-08-25T11:11:04.550Z,29.5
2022-08-25T11:12:04.460Z,29.6
2022-08-25T11:13:04.630Z,29.6
2022-08-25T11:14:09.330Z,29.6
2022-08-25T11:15:04.484Z,29.6
2022-08-25T11:16:17.013Z,29.7
2022-08-25T11:17:04.518Z,29.7
2022-08-25T11:18:04.436Z,29.7
2022-08-25T11:19:05.646Z,29.7
2022-08-25T11:20:04.410Z,29.8
2022-08-25T11:21:04.528Z,29.8
2022-08-25T11:22:04.424Z,29.8
2022-08-25T11:23:04.650Z,29.9
2022-08-25T11:24:04.429Z,29.9
2022-08-25T11:25:04.435Z,29.9
2022-08-25T11:26:04.476Z,29.9
2022-08-25T11:27:04.470Z,29.9
2022-08-25T11:28:04.621Z,29.9
2022-08-25T11:29:04.443Z,30.0
2022-08-25T11:30:05.978Z,30.0
2022-08-25T11:31:04.480Z,30.0
2022-08-25T11:32:04.423Z,30.0
2022-08-25T11:33:04.453Z,30.0
2022-08-25T11:34:04.443Z,30.0
2022-08-25T11:35:04.452Z,30.0
2022-08-25T11:36:04.443Z,30.0
2022-08-25T11:37:04.480Z,30.0
2022-08-25T11:38:04.701Z,30.0
2022-08-25T11:39:04.496Z,30.0
2022-08-25T11:40:04.481Z,30.0
2022-08-25T11:41:04.569Z,30.1
2022-08-25T11:42:04.521Z,30.0
2022-08-25T11:43:08.067Z,30.1
2022-08-25T11:44:04.450Z,30.1
2022-08-25T11:45:04.560Z,30.1
2022-08-25T11:46:04.517Z,30.1
2022-08-25T11:47:05.649Z,30.1
2022-08-25T11:48:04.616Z,30.1
2022-08-25T11:49:04.629Z,30.1
2022-08-25T11:50:04.431Z,30.1
2022-08-25T11:51:04.878Z,30.1
2022-08-25T11:52:04.424Z,30.1
2022-08-25T11:53:04.439Z,30.1
2022-08-25T11:54:04.427Z,30.1
2022-08-25T11:55:04.472Z,30.1
2022-08-25T11:56:30.914Z,29.9
2022-08-25T11:57:04.622Z,30.0
2022-08-25T11:58:04.792Z,30.0
2022-08-25T11:59:04.617Z,30.0
2022-08-25T12:00:04.609Z,30.0
2022-08-25T12:01:06.135Z,30.0
2022-08-25T12:02:04.626Z,29.9
2022-08-25T12:03:04.599Z,29.9
2022-08-25T12:04:04.652Z,29.9
2022-08-25T12:05:04.759Z,29.9
2022-08-25T12:06:06.138Z,29.9
2022-08-25T12:07:04.613Z,30.0
2022-08-25T12:08:04.805Z,30.0
2022-08-25T12:09:04.606Z,29.9
2022-08-25T12:10:04.686Z,30.0
2022-08-25T12:11:10.465Z,29.9
2022-08-25T12:12:04.637Z,29.9
2022-08-25T12:13:04.935Z,30.0
2022-08-25T12:14:04.615Z,30.0
2022-08-25T12:15:04.682Z,30.0
2022-08-25T12:16:04.614Z,30.0
2022-08-25T12:17:04.648Z,30.0
2022-08-25T12:18:07.435Z,30.0
2022-08-25T12:19:04.651Z,30.0
2022-08-25T12:20:04.655Z,30.0
2022-08-25T12:21:04.666Z,30.0
2022-08-25T12:22:04.640Z,30.0
2022-08-25T12:23:04.628Z,30.0
2022-08-25T12:24:04.644Z,30.0
2022-08-25T12:25:04.643Z,30.0
2022-08-25T12:26:04.619Z,30.0
2022-08-25T12:27:06.281Z,30.0
2022-08-25T12:28:04.826Z,30.0
2022-08-25T12:29:07.465Z,30.0
2022-08-25T12:30:05.211Z,30.0
2022-08-25T12:31:04.676Z,30.0
2022-08-25T12:32:05.167Z,30.1
2022-08-25T12:33:04.966Z,30.1
2022-08-25T12:34:04.669Z,30.2
2022-08-25T12:35:04.707Z,30.2
2022-08-25T12:36:04.708Z,30.2
2022-08-25T12:37:06.308Z,30.2
2022-08-25T12:38:04.829Z,30.3
2022-08-25T12:39:04.639Z,30.3
2022-08-25T12:40:04.663Z,30.3
2022-08-25T12:41:04.639Z,30.3
2022-08-25T12:42:04.673Z,30.4
2022-08-25T12:43:04.816Z,30.4
2022-08-25T12:44:04.719Z,30.4
2022-08-25T12:45:05.169Z,30.4
2022-08-25T12:46:05.060Z,30.4
2022-08-25T12:47:11.546Z,30.4
2022-08-25T12:48:06.074Z,30.4
2022-08-25T12:49:05.186Z,30.5
2022-08-25T12:50:12.650Z,30.5
2022-08-25T12:51:04.617Z,30.5
2022-08-25T12:52:04.621Z,30.5
2022-08-25T12:53:11.543Z,30.5
2022-08-25T12:54:09.930Z,30.5
2022-08-25T12:55:04.423Z,30.5
2022-08-25T12:56:11.004Z,30.5
2022-08-25T12:57:05.035Z,30.5
2022-08-25T12:58:04.693Z,30.5
2022-08-25T12:59:06.007Z,30.5
2022-08-25T13:01:04.413Z,30.5
2022-08-25T13:02:07.129Z,30.5
2022-08-25T13:03:04.631Z,30.5
2022-08-25T13:04:04.337Z,30.5
2022-08-25T13:05:04.538Z,30.5
2022-08-25T13:06:04.423Z,30.5
2022-08-25T13:07:04.443Z,30.5
2022-08-25T13:08:05.355Z,30.5
2022-08-25T13:09:04.342Z,30.5
2022-08-25T13:10:05.421Z,30.5
2022-08-25T13:11:04.516Z,30.5
2022-08-25T13:12:04.451Z,30.5
2022-08-25T13:13:04.428Z,30.5
2022-08-25T13:14:04.515Z,30.5
2022-08-25T13:15:04.474Z,30.5
2022-08-25T13:16:05.389Z,30.5
2022-08-25T13:17:04.394Z,30.6
2022-08-25T13:18:05.215Z,30.6
2022-08-25T13:19:04.342Z,30.6
2022-08-25T13:20:04.720Z,30.5
2022-08-25T13:21:04.443Z,30.5
2022-08-25T13:22:04.618Z,30.5
2022-08-25T13:23:05.303Z,30.6
2022-08-25T13:24:04.778Z,30.6
2022-08-25T13:25:04.445Z,30.6